ASA561 PHKO-KLAX
Flight info
| Callsign | ASA561 |
|---|---|
| Flight time | N/A |
| Altitude | 33000 |
| Route | KOA V5 MYNAH V11 UPP EBBER R577 ETNIC/N0456F350 R577 ELKEY RYDRR2 |
| Aircraft | B738/M-SDE2E3FGHIRWXY/LB1 |
Departure
| Time | 2026-05-09 17:36 |
|---|---|
| Airport | Ellison Onizuka Kona International Airport at Keāhole (PHKO) |
Arrival
| Time | N/A |
|---|---|
| Airport | Los Angeles International Airport (KLAX) |
| Time | Latitude | Longitude | Altitude | Speed | Heading |
|---|---|---|---|---|---|
| 2026-05-09 16:52 | 19.73594 | -156.04235 | 47 ft | 0 kts | 95° |
| 2026-05-09 17:26 | 19.73595 | -156.04249 | 46 ft | 4 kts | 95° |
| 2026-05-09 17:26 | 19.73598 | -156.04277 | 43 ft | 4 kts | 94° |
| 2026-05-09 17:26 | 19.73597 | -156.04305 | 42 ft | 4 kts | 76° |
| 2026-05-09 17:27 | 19.73587 | -156.04330 | 42 ft | 4 kts | 38° |
| 2026-05-09 17:27 | 19.73573 | -156.04337 | 42 ft | 0 kts | 5° |
| 2026-05-09 17:30 | 19.73577 | -156.04337 | 44 ft | 2 kts | 5° |
| 2026-05-09 17:30 | 19.73613 | -156.04334 | 44 ft | 8 kts | 5° |
| 2026-05-09 17:31 | 19.73687 | -156.04327 | 43 ft | 13 kts | 4° |
| 2026-05-09 17:31 | 19.73798 | -156.04317 | 42 ft | 19 kts | 5° |
| 2026-05-09 17:32 | 19.74347 | -156.04268 | 46 ft | 19 kts | 3° |
| 2026-05-09 17:32 | 19.74476 | -156.04256 | 49 ft | 18 kts | 5° |
| 2026-05-09 17:32 | 19.74599 | -156.04245 | 49 ft | 17 kts | 4° |
| 2026-05-09 17:33 | 19.74717 | -156.04234 | 50 ft | 17 kts | 5° |
| 2026-05-09 17:33 | 19.74832 | -156.04224 | 52 ft | 16 kts | 4° |
| 2026-05-09 17:33 | 19.74942 | -156.04214 | 51 ft | 16 kts | 5° |
| 2026-05-09 17:33 | 19.75048 | -156.04205 | 48 ft | 15 kts | 5° |
| 2026-05-09 17:34 | 19.75150 | -156.04195 | 46 ft | 14 kts | 5° |
| 2026-05-09 17:35 | 19.75346 | -156.04438 | 40 ft | 3 kts | 182° |
| 2026-05-09 17:35 | 19.75303 | -156.04440 | 42 ft | 15 kts | 184° |
| 2026-05-09 17:36 | 19.74956 | -156.04471 | 45 ft | 86 kts | 185° |
| 2026-05-09 17:36 | 19.74134 | -156.04544 | 44 ft | 149 kts | 185° |
| 2026-05-09 17:36 | 19.72925 | -156.04657 | 154 ft | 193 kts | 184° |
| 2026-05-09 17:36 | 19.71599 | -156.04767 | 1110 ft | 188 kts | 182° |
| 2026-05-09 17:37 | 19.70322 | -156.05119 | 1847 ft | 197 kts | 212° |
| 2026-05-09 17:37 | 19.69318 | -156.06205 | 2103 ft | 220 kts | 241° |
| 2026-05-09 17:37 | 19.69023 | -156.07834 | 2232 ft | 240 kts | 279° |
| 2026-05-09 17:37 | 19.69710 | -156.09468 | 2581 ft | 253 kts | 311° |
| 2026-05-09 17:38 | 19.71213 | -156.10462 | 3016 ft | 263 kts | 349° |
| 2026-05-09 17:38 | 19.73029 | -156.10408 | 3737 ft | 263 kts | 10° |
| 2026-05-09 17:38 | 19.74848 | -156.10144 | 4458 ft | 266 kts | 4° |
| 2026-05-09 17:39 | 19.78587 | -156.10307 | 5856 ft | 271 kts | 4° |
| 2026-05-09 17:39 | 19.80329 | -156.09696 | 6599 ft | 264 kts | 36° |
| 2026-05-09 17:39 | 19.81815 | -156.08512 | 7174 ft | 271 kts | 36° |
| 2026-05-09 17:39 | 19.83400 | -156.07379 | 7732 ft | 279 kts | 33° |
| 2026-05-09 17:40 | 19.85060 | -156.06278 | 8361 ft | 281 kts | 32° |
| 2026-05-09 17:40 | 19.86738 | -156.05197 | 9078 ft | 283 kts | 32° |
| 2026-05-09 17:40 | 19.88438 | -156.04118 | 9709 ft | 287 kts | 32° |
| 2026-05-09 17:40 | 19.90166 | -156.03032 | 10301 ft | 292 kts | 31° |
| 2026-05-09 17:41 | 19.91976 | -156.01898 | 10470 ft | 312 kts | 31° |
| 2026-05-09 17:41 | 19.93904 | -156.00693 | 10620 ft | 332 kts | 30° |
| 2026-05-09 17:41 | 19.95248 | -155.99854 | 10768 ft | 342 kts | 31° |
| 2026-05-09 17:41 | 19.98039 | -155.98111 | 11366 ft | 352 kts | 30° |
| 2026-05-09 17:42 | 19.99443 | -155.97234 | 11730 ft | 355 kts | 30° |
| 2026-05-09 17:42 | 20.02281 | -155.95463 | 12470 ft | 360 kts | 29° |
| 2026-05-09 17:42 | 20.04453 | -155.94107 | 12983 ft | 364 kts | 30° |
| 2026-05-09 17:42 | 20.05942 | -155.93176 | 13322 ft | 368 kts | 29° |
| 2026-05-09 17:43 | 20.08135 | -155.91803 | 13805 ft | 372 kts | 28° |
| 2026-05-09 17:43 | 20.10381 | -155.90397 | 14250 ft | 377 kts | 29° |
| 2026-05-09 17:43 | 20.12640 | -155.88980 | 14774 ft | 378 kts | 28° |
| 2026-05-09 17:43 | 20.14921 | -155.87551 | 15231 ft | 382 kts | 28° |
| 2026-05-09 17:44 | 20.17222 | -155.86106 | 15692 ft | 386 kts | 29° |
| 2026-05-09 17:44 | 20.19398 | -155.84408 | 16186 ft | 391 kts | 40° |
| 2026-05-09 17:44 | 20.21270 | -155.82285 | 16678 ft | 395 kts | 51° |
| 2026-05-09 17:44 | 20.22808 | -155.79841 | 17090 ft | 400 kts | 57° |
| 2026-05-09 17:45 | 20.24266 | -155.77293 | 17532 ft | 403 kts | 58° |
| 2026-05-09 17:45 | 20.25708 | -155.74719 | 17980 ft | 407 kts | 58° |
| 2026-05-09 17:45 | 20.27148 | -155.72145 | 18398 ft | 411 kts | 58° |
| 2026-05-09 17:45 | 20.28624 | -155.69518 | 18754 ft | 414 kts | 57° |
| 2026-05-09 17:46 | 20.30114 | -155.66881 | 19129 ft | 417 kts | 57° |
| 2026-05-09 17:46 | 20.31623 | -155.64224 | 19495 ft | 421 kts | 57° |
| 2026-05-09 17:46 | 20.33146 | -155.61552 | 19851 ft | 424 kts | 57° |
| 2026-05-09 17:46 | 20.34685 | -155.58857 | 20232 ft | 427 kts | 57° |
| 2026-05-09 17:47 | 20.36236 | -155.56143 | 20595 ft | 430 kts | 57° |
| 2026-05-09 17:47 | 20.37796 | -155.53413 | 20934 ft | 433 kts | 57° |
| 2026-05-09 17:47 | 20.39371 | -155.50655 | 21274 ft | 437 kts | 57° |
| 2026-05-09 17:47 | 20.40958 | -155.47876 | 21631 ft | 440 kts | 57° |
| 2026-05-09 17:48 | 20.42559 | -155.45071 | 21976 ft | 443 kts | 57° |
| 2026-05-09 17:48 | 20.44145 | -155.42290 | 22305 ft | 446 kts | 57° |
| 2026-05-09 17:48 | 20.45762 | -155.39452 | 22640 ft | 449 kts | 57° |
| 2026-05-09 17:48 | 20.47391 | -155.36595 | 22966 ft | 452 kts | 57° |
| 2026-05-09 17:49 | 20.49029 | -155.33717 | 23283 ft | 455 kts | 57° |
| 2026-05-09 17:49 | 20.50677 | -155.30821 | 23601 ft | 459 kts | 57° |
| 2026-05-09 17:49 | 20.52339 | -155.27900 | 23858 ft | 462 kts | 58° |
| 2026-05-09 17:49 | 20.54011 | -155.24959 | 24093 ft | 465 kts | 58° |
| 2026-05-09 17:50 | 20.55694 | -155.21997 | 24346 ft | 468 kts | 57° |
| 2026-05-09 17:50 | 20.59084 | -155.16028 | 24878 ft | 472 kts | 57° |
| 2026-05-09 17:50 | 20.60790 | -155.13020 | 25114 ft | 476 kts | 57° |
| 2026-05-09 17:51 | 20.62511 | -155.09987 | 25349 ft | 479 kts | 57° |
| 2026-05-09 17:51 | 20.64240 | -155.06936 | 25577 ft | 481 kts | 57° |
| 2026-05-09 17:51 | 20.65977 | -155.03870 | 25809 ft | 484 kts | 57° |
| 2026-05-09 17:51 | 20.67728 | -155.00776 | 26045 ft | 487 kts | 57° |
| 2026-05-09 17:52 | 20.69486 | -154.97670 | 26277 ft | 489 kts | 57° |
| 2026-05-09 17:52 | 20.71251 | -154.94549 | 26486 ft | 492 kts | 57° |
| 2026-05-09 17:52 | 20.73026 | -154.91408 | 26692 ft | 495 kts | 57° |
| 2026-05-09 17:52 | 20.74811 | -154.88249 | 26914 ft | 497 kts | 57° |
| 2026-05-09 17:53 | 20.76601 | -154.85078 | 27134 ft | 500 kts | 57° |
| 2026-05-09 17:53 | 20.78399 | -154.81891 | 27342 ft | 502 kts | 57° |
| 2026-05-09 17:53 | 20.80206 | -154.78686 | 27541 ft | 505 kts | 57° |
| 2026-05-09 17:53 | 20.82023 | -154.75463 | 27759 ft | 508 kts | 56° |
| 2026-05-09 17:54 | 20.83849 | -154.72221 | 27935 ft | 510 kts | 56° |
| 2026-05-09 17:54 | 20.85685 | -154.68961 | 28138 ft | 513 kts | 56° |
| 2026-05-09 17:54 | 20.87525 | -154.65692 | 28336 ft | 515 kts | 56° |
| 2026-05-09 17:54 | 20.89352 | -154.62444 | 28522 ft | 517 kts | 56° |
| 2026-05-09 17:55 | 20.91210 | -154.59138 | 28709 ft | 520 kts | 56° |
| 2026-05-09 17:55 | 20.93077 | -154.55813 | 28885 ft | 522 kts | 56° |
| 2026-05-09 17:55 | 20.94950 | -154.52475 | 29060 ft | 524 kts | 56° |
| 2026-05-09 17:55 | 20.96832 | -154.49121 | 29240 ft | 526 kts | 56° |
| 2026-05-09 17:56 | 20.98720 | -154.45753 | 29411 ft | 528 kts | 56° |
| 2026-05-09 17:56 | 21.00617 | -154.42368 | 29587 ft | 530 kts | 56° |
| 2026-05-09 17:56 | 21.02515 | -154.38978 | 29753 ft | 532 kts | 56° |
| 2026-05-09 17:57 | 21.06330 | -154.32159 | 30143 ft | 536 kts | 56° |
| 2026-05-09 17:57 | 21.08247 | -154.28728 | 30313 ft | 537 kts | 56° |
| 2026-05-09 17:57 | 21.10161 | -154.25302 | 30558 ft | 536 kts | 56° |
| 2026-05-09 17:57 | 21.12053 | -154.21910 | 30821 ft | 534 kts | 56° |
| 2026-05-09 17:58 | 21.13960 | -154.18490 | 31059 ft | 534 kts | 56° |
| 2026-05-09 17:58 | 21.15864 | -154.15076 | 31256 ft | 535 kts | 56° |
| 2026-05-09 17:58 | 21.17772 | -154.11652 | 31462 ft | 535 kts | 56° |
| 2026-05-09 17:58 | 21.19682 | -154.08222 | 31697 ft | 534 kts | 56° |
| 2026-05-09 17:59 | 21.21582 | -154.04808 | 31921 ft | 534 kts | 56° |
| 2026-05-09 17:59 | 21.23489 | -154.01379 | 32160 ft | 533 kts | 56° |
| 2026-05-09 17:59 | 21.25389 | -153.97961 | 32373 ft | 533 kts | 56° |
| 2026-05-09 17:59 | 21.27264 | -153.94586 | 32591 ft | 534 kts | 56° |
| 2026-05-09 18:00 | 21.29169 | -153.91155 | 32731 ft | 536 kts | 56° |
| 2026-05-09 18:00 | 21.31082 | -153.87707 | 32888 ft | 537 kts | 56° |
| 2026-05-09 18:00 | 21.32995 | -153.84257 | 33112 ft | 536 kts | 56° |
| 2026-05-09 18:01 | 21.36821 | -153.77350 | 33120 ft | 538 kts | 56° |
| 2026-05-09 18:01 | 21.40621 | -153.70479 | 33107 ft | 533 kts | 56° |
| 2026-05-09 18:02 | 21.44395 | -153.63647 | 33112 ft | 530 kts | 56° |
| 2026-05-09 18:02 | 21.48133 | -153.56874 | 33123 ft | 531 kts | 56° |
| 2026-05-09 18:03 | 21.51920 | -153.50008 | 33129 ft | 538 kts | 56° |
| 2026-05-09 18:03 | 21.55748 | -153.43056 | 33123 ft | 544 kts | 56° |
| 2026-05-09 18:04 | 21.59617 | -153.36016 | 33128 ft | 547 kts | 56° |
| 2026-05-09 18:04 | 21.63494 | -153.28952 | 33124 ft | 549 kts | 56° |
| 2026-05-09 18:05 | 21.67355 | -153.21909 | 33125 ft | 551 kts | 56° |
| 2026-05-09 18:05 | 21.71246 | -153.14802 | 33129 ft | 551 kts | 57° |
| 2026-05-09 18:06 | 21.75002 | -153.07596 | 33132 ft | 553 kts | 58° |
| 2026-05-09 18:06 | 21.78627 | -153.00308 | 33127 ft | 552 kts | 59° |
| 2026-05-09 18:07 | 21.82246 | -152.93037 | 33126 ft | 550 kts | 58° |
| 2026-05-09 18:07 | 21.85885 | -152.85790 | 33126 ft | 549 kts | 58° |
| 2026-05-09 18:08 | 21.89518 | -152.78575 | 33116 ft | 547 kts | 58° |
| 2026-05-09 18:08 | 21.93141 | -152.71370 | 33129 ft | 546 kts | 58° |
| 2026-05-09 18:09 | 21.96725 | -152.64226 | 33130 ft | 546 kts | 58° |
| 2026-05-09 18:09 | 22.00330 | -152.57029 | 33134 ft | 545 kts | 58° |
| 2026-05-09 18:10 | 22.03928 | -152.49835 | 33130 ft | 545 kts | 58° |
| 2026-05-09 18:10 | 22.07519 | -152.42645 | 33139 ft | 545 kts | 58° |
| 2026-05-09 18:11 | 22.11108 | -152.35450 | 33135 ft | 545 kts | 58° |
| 2026-05-09 18:11 | 22.14700 | -152.28239 | 33139 ft | 546 kts | 58° |
| 2026-05-09 18:12 | 22.18292 | -152.21018 | 33132 ft | 547 kts | 58° |
| 2026-05-09 18:12 | 22.21870 | -152.13813 | 33147 ft | 547 kts | 58° |
| 2026-05-09 18:13 | 22.25464 | -152.06567 | 33134 ft | 548 kts | 58° |
| 2026-05-09 18:13 | 22.29063 | -151.99299 | 33140 ft | 548 kts | 58° |
| 2026-05-09 18:14 | 22.32661 | -151.92022 | 33140 ft | 549 kts | 58° |
| 2026-05-09 18:14 | 22.36248 | -151.84753 | 33138 ft | 549 kts | 58° |
| 2026-05-09 18:15 | 22.39801 | -151.77507 | 33146 ft | 549 kts | 58° |
| 2026-05-09 18:15 | 22.43371 | -151.70206 | 33147 ft | 549 kts | 58° |
| 2026-05-09 18:16 | 22.46941 | -151.62896 | 33142 ft | 549 kts | 58° |
| 2026-05-09 18:16 | 22.50513 | -151.55576 | 33145 ft | 549 kts | 59° |
| 2026-05-09 18:17 | 22.54080 | -151.48258 | 33143 ft | 549 kts | 59° |
| 2026-05-09 18:17 | 22.57615 | -151.40993 | 33145 ft | 549 kts | 59° |
| 2026-05-09 18:18 | 22.61171 | -151.33676 | 33144 ft | 549 kts | 59° |
| 2026-05-09 18:18 | 22.64720 | -151.26362 | 33141 ft | 548 kts | 59° |
| 2026-05-09 18:19 | 22.68266 | -151.19043 | 33144 ft | 548 kts | 59° |
| 2026-05-09 18:19 | 22.73550 | -151.08118 | 33144 ft | 548 kts | 59° |
| 2026-05-09 18:20 | 22.77079 | -151.00807 | 33143 ft | 547 kts | 59° |
| 2026-05-09 18:20 | 22.80606 | -150.93491 | 33158 ft | 547 kts | 59° |
| 2026-05-09 18:21 | 22.84136 | -150.86159 | 33151 ft | 548 kts | 59° |
| 2026-05-09 18:21 | 22.87637 | -150.78874 | 33155 ft | 548 kts | 59° |
| 2026-05-09 18:22 | 22.91157 | -150.71541 | 33145 ft | 548 kts | 59° |
| 2026-05-09 18:22 | 22.94677 | -150.64196 | 33154 ft | 548 kts | 59° |
| 2026-05-09 18:23 | 22.98191 | -150.56852 | 33181 ft | 548 kts | 59° |
| 2026-05-09 18:23 | 23.01685 | -150.49541 | 33159 ft | 549 kts | 59° |
| 2026-05-09 18:24 | 23.05198 | -150.42178 | 33151 ft | 549 kts | 59° |
| 2026-05-09 18:25 | 23.10461 | -150.31125 | 33152 ft | 549 kts | 59° |
| 2026-05-09 18:25 | 23.13962 | -150.23760 | 33154 ft | 549 kts | 59° |
| 2026-05-09 18:26 | 23.17470 | -150.16369 | 33168 ft | 549 kts | 59° |
| 2026-05-09 18:26 | 23.20944 | -150.09037 | 33157 ft | 549 kts | 59° |
| 2026-05-09 18:27 | 23.24440 | -150.01651 | 33156 ft | 549 kts | 59° |
| 2026-05-09 18:27 | 23.27926 | -149.94271 | 33158 ft | 549 kts | 59° |
| 2026-05-09 18:28 | 23.31410 | -149.86886 | 33148 ft | 548 kts | 59° |
| 2026-05-09 18:28 | 23.34890 | -149.79499 | 33157 ft | 548 kts | 59° |
| 2026-05-09 18:29 | 23.38341 | -149.72161 | 33163 ft | 548 kts | 59° |
| 2026-05-09 18:29 | 23.41813 | -149.64770 | 33164 ft | 548 kts | 59° |
| 2026-05-09 18:30 | 23.45281 | -149.57374 | 33151 ft | 548 kts | 59° |
| 2026-05-09 18:30 | 23.48744 | -149.49976 | 33166 ft | 547 kts | 59° |
| 2026-05-09 18:31 | 23.52181 | -149.42624 | 33169 ft | 547 kts | 59° |
| 2026-05-09 18:31 | 23.55635 | -149.35224 | 33186 ft | 547 kts | 59° |
| 2026-05-09 18:32 | 23.58506 | -149.29065 | 33168 ft | 547 kts | 59° |
| 2026-05-09 18:32 | 23.61951 | -149.21663 | 33169 ft | 547 kts | 59° |
| 2026-05-09 18:33 | 23.65400 | -149.14242 | 33169 ft | 547 kts | 59° |
| 2026-05-09 18:33 | 23.68822 | -149.06867 | 33167 ft | 547 kts | 59° |
| 2026-05-09 18:34 | 23.72256 | -148.99454 | 33160 ft | 547 kts | 59° |
| 2026-05-09 18:34 | 23.75688 | -148.92033 | 33179 ft | 547 kts | 59° |
| 2026-05-09 18:35 | 23.79120 | -148.84603 | 33175 ft | 547 kts | 59° |
| 2026-05-09 18:35 | 23.82548 | -148.77170 | 33170 ft | 547 kts | 59° |
| 2026-05-09 18:36 | 23.85946 | -148.69789 | 33178 ft | 547 kts | 59° |